createdAt,value
2018-11-04T00:00:33.969Z,102658.36
2018-11-04T00:03:02.367Z,102659.64
2018-11-04T00:05:30.746Z,102652.89
2018-11-04T00:07:59.175Z,102662.83
2018-11-04T00:10:27.542Z,102653.13
2018-11-04T00:12:55.938Z,102645.95
2018-11-04T00:15:24.315Z,102649.05
2018-11-04T00:17:52.706Z,102650.33
2018-11-04T00:20:21.150Z,102642.25
2018-11-04T00:22:49.519Z,102643.79
2018-11-04T00:25:17.896Z,102639.56
2018-11-04T00:27:46.330Z,102639.56
2018-11-04T00:30:15.665Z,102639.17
2018-11-04T00:32:44.575Z,102639.17
2018-11-04T00:35:13.141Z,102638.03
2018-11-04T00:37:41.550Z,102634.58
2018-11-04T00:40:10.099Z,102636.50
2018-11-04T00:42:38.602Z,102633.05
2018-11-04T00:45:08.250Z,102626.91
2018-11-04T00:47:36.907Z,102625.10
2018-11-04T00:50:07.542Z,102625.10
2018-11-04T00:52:35.944Z,102619.88
2018-11-04T00:55:04.339Z,102624.47
2018-11-04T00:57:32.837Z,102613.25
2018-11-04T01:00:01.209Z,102619.50
2018-11-04T01:02:29.667Z,102606.97
2018-11-04T01:04:58.038Z,102604.27
2018-11-04T01:07:26.433Z,102601.61
2018-11-04T01:09:54.839Z,102600.73
2018-11-04T01:12:23.225Z,102596.89
2018-11-04T01:14:51.622Z,102605.55
2018-11-04T01:17:19.996Z,102593.69
2018-11-04T01:19:48.443Z,102587.79
2018-11-04T01:22:16.810Z,102588.67
2018-11-04T01:24:45.838Z,102582.81
2018-11-04T01:27:14.226Z,102579.37
2018-11-04T01:29:42.622Z,102574.75
2018-11-04T01:32:10.990Z,102567.22
2018-11-04T01:34:39.379Z,102569.48
2018-11-04T01:37:07.753Z,102564.37
2018-11-04T01:39:36.147Z,102562.20
2018-11-04T01:42:04.844Z,102562.98
2018-11-04T01:44:33.298Z,102562.98
2018-11-04T01:47:01.671Z,102552.63
2018-11-04T01:49:30.078Z,102554.94
2018-11-04T01:51:58.455Z,102550.86
2018-11-04T01:54:26.851Z,102540.00
2018-11-04T01:56:55.217Z,102544.34
2018-11-04T01:59:23.605Z,102534.75
2018-11-04T02:01:51.978Z,102542.81
2018-11-04T02:04:20.374Z,102537.80
2018-11-04T02:06:48.761Z,102532.59
2018-11-04T02:09:17.153Z,102531.70
2018-11-04T02:11:45.542Z,102522.75
2018-11-04T02:14:13.938Z,102518.39
2018-11-04T02:16:42.582Z,102517.36
2018-11-04T02:19:10.970Z,102508.06
2018-11-04T02:21:39.333Z,102514.45
2018-11-04T02:24:07.730Z,102510.72
2018-11-04T02:26:36.111Z,102497.19
2018-11-04T02:29:04.700Z,102502.01
2018-11-04T02:31:33.066Z,102507.00
2018-11-04T02:34:01.471Z,102509.80
2018-11-04T02:36:29.843Z,102493.41
2018-11-04T02:38:58.251Z,102494.31
2018-11-04T02:41:26.644Z,102497.20
2018-11-04T02:43:55.047Z,102493.86
2018-11-04T02:46:23.455Z,102487.31
2018-11-04T02:48:51.859Z,102480.14
2018-11-04T02:51:20.231Z,102478.30
2018-11-04T02:53:48.611Z,102475.61
2018-11-04T02:56:16.990Z,102475.35
2018-11-04T02:58:45.386Z,102474.17
2018-11-04T03:01:13.774Z,102476.63
2018-11-04T03:03:42.138Z,102470.99
2018-11-04T03:06:10.526Z,102467.80
2018-11-04T03:08:38.894Z,102467.18
2018-11-04T03:11:07.274Z,102462.33
2018-11-04T03:13:35.655Z,102459.14
2018-11-04T03:16:04.046Z,102456.75
2018-11-04T03:18:32.421Z,102449.33
2018-11-04T03:21:00.810Z,102447.69
2018-11-04T03:23:29.181Z,102444.25
2018-11-04T03:25:57.664Z,102448.34
2018-11-04T03:28:26.035Z,102444.77
2018-11-04T03:30:54.415Z,102435.32
2018-11-04T03:33:22.797Z,102435.32
2018-11-04T03:35:51.187Z,102434.44
2018-11-04T03:38:19.561Z,102427.26
2018-11-04T03:40:47.978Z,102425.72
2018-11-04T03:43:16.347Z,102427.88
2018-11-04T03:45:44.754Z,102431.59
2018-11-04T03:48:13.135Z,102425.30
2018-11-04T03:50:41.514Z,102429.89
2018-11-04T03:53:09.879Z,102428.58
2018-11-04T03:55:38.562Z,102425.85
2018-11-04T03:58:06.927Z,102424.05
2018-11-04T04:00:35.322Z,102422.60
2018-11-04T04:03:03.700Z,102413.52
2018-11-04T04:05:32.129Z,102413.47
2018-11-04T04:08:00.482Z,102410.26
2018-11-04T04:10:28.885Z,102405.09
2018-11-04T04:12:57.275Z,102395.48
2018-11-04T04:15:25.679Z,102389.70
2018-11-04T04:17:54.045Z,102384.70
2018-11-04T04:20:22.457Z,102386.08
2018-11-04T04:22:50.836Z,102376.50
2018-11-04T04:25:19.225Z,102377.03
2018-11-04T04:27:47.581Z,102374.73
2018-11-04T04:30:15.975Z,102369.00
2018-11-04T04:32:44.347Z,102371.83
2018-11-04T04:35:12.747Z,102361.85
2018-11-04T04:37:41.615Z,102369.92
2018-11-04T04:40:10.324Z,102366.09
2018-11-04T04:42:38.694Z,102372.09
2018-11-04T04:45:07.064Z,102360.70
2018-11-04T04:47:35.667Z,102356.47
2018-11-04T04:50:04.258Z,102359.64
2018-11-04T04:52:32.638Z,102360.13
2018-11-04T04:55:01.012Z,102357.92
2018-11-04T04:57:29.406Z,102350.98
2018-11-04T04:59:57.779Z,102353.89
2018-11-04T05:02:26.187Z,102349.88
2018-11-04T05:04:54.559Z,102351.91
2018-11-04T05:07:22.954Z,102338.03
2018-11-04T05:09:51.336Z,102338.25
2018-11-04T05:12:19.728Z,102341.03
2018-11-04T05:14:48.123Z,102341.77
2018-11-04T05:17:16.523Z,102334.83
2018-11-04T05:19:44.891Z,102337.73
2018-11-04T05:22:13.291Z,102340.23
2018-11-04T05:24:41.661Z,102338.90
2018-11-04T05:27:10.056Z,102337.16
2018-11-04T05:29:38.421Z,102332.98
2018-11-04T05:32:06.919Z,102331.85
2018-11-04T05:34:35.295Z,102334.56
2018-11-04T05:37:03.690Z,102332.18
2018-11-04T05:39:32.058Z,102334.21
2018-11-04T05:42:00.478Z,102331.78
2018-11-04T05:44:28.859Z,102325.52
2018-11-04T05:46:57.262Z,102321.03
2018-11-04T05:49:25.628Z,102322.95
2018-11-04T05:51:54.019Z,102319.64
2018-11-04T05:54:22.399Z,102309.98
2018-11-04T05:56:50.789Z,102313.98
2018-11-04T05:59:19.162Z,102313.22
2018-11-04T06:01:47.577Z,102312.33
2018-11-04T06:04:15.963Z,102312.24
2018-11-04T06:06:44.353Z,102308.30
2018-11-04T06:09:12.727Z,102316.32
2018-11-04T06:11:41.144Z,102311.19
2018-11-04T06:14:09.506Z,102321.48
2018-11-04T06:16:37.892Z,102317.34
2018-11-04T06:19:06.407Z,102317.14
2018-11-04T06:21:34.815Z,102317.25
2018-11-04T06:24:03.191Z,102323.06
2018-11-04T06:26:31.613Z,102315.88
2018-11-04T06:28:59.986Z,102317.35
2018-11-04T06:31:28.360Z,102317.14
2018-11-04T06:33:56.759Z,102314.69
2018-11-04T06:36:25.139Z,102312.31
2018-11-04T06:38:53.534Z,102314.09
2018-11-04T06:41:21.936Z,102317.38
2018-11-04T06:43:50.326Z,102313.23
2018-11-04T06:46:18.708Z,102321.44
2018-11-04T06:48:47.107Z,102323.91
2018-11-04T06:51:15.479Z,102319.84
2018-11-04T06:53:43.870Z,102324.11
2018-11-04T06:56:12.238Z,102322.61
2018-11-04T06:58:40.631Z,102322.91
2018-11-04T07:01:09.050Z,102323.68
2018-11-04T07:03:37.575Z,102320.41
2018-11-04T07:06:05.943Z,102322.99
2018-11-04T07:08:34.331Z,102315.94
2018-11-04T07:11:02.704Z,102312.67
2018-11-04T07:13:31.099Z,102314.55
2018-11-04T07:15:59.475Z,102313.15
2018-11-04T07:18:27.863Z,102310.97
2018-11-04T07:20:56.244Z,102310.05
2018-11-04T07:23:24.643Z,102308.66
2018-11-04T07:25:53.007Z,102306.84
2018-11-04T07:28:23.054Z,102301.10
2018-11-04T07:30:51.439Z,102290.51
2018-11-04T07:33:19.834Z,102297.52
2018-11-04T07:35:48.207Z,102294.66
2018-11-04T07:38:16.603Z,102300.09
2018-11-04T07:40:45.000Z,102295.82
2018-11-04T07:43:13.395Z,102290.95
2018-11-04T07:45:41.771Z,102294.69
2018-11-04T07:48:10.183Z,102290.77
2018-11-04T07:50:38.740Z,102288.18
2018-11-04T07:53:07.079Z,102287.75
2018-11-04T07:55:35.454Z,102284.23
2018-11-04T07:58:03.842Z,102284.20
2018-11-04T08:00:32.211Z,102279.05
2018-11-04T08:03:00.602Z,102279.56
2018-11-04T08:05:28.980Z,102271.30
2018-11-04T08:07:57.369Z,102272.34
2018-11-04T08:10:25.751Z,102279.02
2018-11-04T08:12:54.151Z,102271.48
2018-11-04T08:15:22.517Z,102273.98
2018-11-04T08:17:50.933Z,102269.09
2018-11-04T08:20:19.304Z,102272.34
2018-11-04T08:22:47.675Z,102262.09
2018-11-04T08:25:16.079Z,102254.55
2018-11-04T08:27:44.490Z,102255.70
2018-11-04T08:30:12.893Z,102255.45
2018-11-04T08:32:41.271Z,102253.91
2018-11-04T08:35:09.682Z,102252.82
2018-11-04T08:37:38.051Z,102247.41
2018-11-04T08:40:07.056Z,102243.96
2018-11-04T08:42:35.376Z,102241.80
2018-11-04T08:45:03.836Z,102241.48
2018-11-04T08:47:32.202Z,102235.84
2018-11-04T08:50:00.604Z,102233.67
2018-11-04T08:52:29.052Z,102231.91
2018-11-04T08:54:57.689Z,102230.13
2018-11-04T08:57:26.063Z,102232.29
2018-11-04T08:59:54.491Z,102238.26
2018-11-04T09:02:22.871Z,102231.73
2018-11-04T09:04:51.263Z,102225.34
2018-11-04T09:07:19.630Z,102225.31
2018-11-04T09:09:48.047Z,102220.94
2018-11-04T09:12:16.573Z,102213.98
2018-11-04T09:14:44.971Z,102215.16
2018-11-04T09:17:13.344Z,102219.03
2018-11-04T09:19:41.739Z,102206.89
2018-11-04T09:22:10.243Z,102211.61
2018-11-04T09:24:38.598Z,102209.39
2018-11-04T09:27:06.971Z,102205.88
2018-11-04T09:29:43.687Z,102199.72
2018-11-04T09:32:12.055Z,102201.46
2018-11-04T09:34:40.524Z,102190.59
2018-11-04T09:37:08.880Z,102189.19
2018-11-04T09:39:37.271Z,102191.62
2018-11-04T09:42:05.955Z,102188.52
2018-11-04T09:44:34.351Z,102181.59
2018-11-04T09:47:02.718Z,102176.77
2018-11-04T09:49:31.123Z,102177.16
2018-11-04T09:51:59.490Z,102175.81
2018-11-04T09:54:27.890Z,102175.31
2018-11-04T09:56:56.262Z,102172.26
2018-11-04T09:59:24.659Z,102173.17
2018-11-04T10:01:53.030Z,102164.93
2018-11-04T10:04:21.397Z,102171.39
2018-11-04T10:06:49.791Z,102171.70
2018-11-04T10:09:18.154Z,102169.89
2018-11-04T10:11:46.555Z,102161.09
2018-11-04T10:14:14.927Z,102155.27
2018-11-04T10:16:43.332Z,102151.23
2018-11-04T10:19:11.857Z,102151.05
2018-11-04T10:21:40.131Z,102141.73
2018-11-04T10:24:08.510Z,102134.15
2018-11-04T10:26:36.901Z,102126.62
2018-11-04T10:29:05.590Z,102126.78
2018-11-04T10:31:34.004Z,102118.73
2018-11-04T10:34:02.523Z,102116.31
2018-11-04T10:36:30.922Z,102110.89
2018-11-04T10:38:59.291Z,102110.69
2018-11-04T10:41:27.710Z,102106.03
2018-11-04T10:43:56.081Z,102100.11
2018-11-04T10:46:24.480Z,102096.74
2018-11-04T10:48:53.007Z,102099.05
2018-11-04T10:51:21.403Z,102091.80
2018-11-04T10:53:49.774Z,102097.58
2018-11-04T10:56:18.170Z,102096.32
2018-11-04T10:58:46.577Z,102098.50
2018-11-04T11:01:14.975Z,102098.64
2018-11-04T11:03:43.358Z,102087.77
2018-11-04T11:06:11.767Z,102095.72
2018-11-04T11:08:40.134Z,102095.80
2018-11-04T11:11:08.647Z,102091.13
2018-11-04T11:13:37.026Z,102098.07
2018-11-04T11:16:05.643Z,102087.34
2018-11-04T11:18:34.019Z,102088.22
2018-11-04T11:21:02.425Z,102085.72
2018-11-04T11:23:30.798Z,102084.56
2018-11-04T11:25:59.189Z,102076.39
2018-11-04T11:28:27.579Z,102073.50
2018-11-04T11:30:55.983Z,102064.88
2018-11-04T11:33:24.363Z,102063.64
2018-11-04T11:35:52.863Z,102058.09
2018-11-04T11:38:21.242Z,102063.81
2018-11-04T11:40:49.671Z,102062.09
2018-11-04T11:43:18.054Z,102057.35
2018-11-04T11:45:46.436Z,102059.14
2018-11-04T11:48:14.844Z,102056.99
2018-11-04T11:50:43.229Z,102053.09
2018-11-04T11:53:11.815Z,102048.88
2018-11-04T11:55:40.191Z,102042.91
2018-11-04T11:58:08.691Z,102036.13
2018-11-04T12:00:37.080Z,102029.73
2018-11-04T12:03:05.778Z,102025.55
2018-11-04T12:05:34.155Z,102021.74
2018-11-04T12:08:02.552Z,102020.48
2018-11-04T12:10:30.931Z,102016.22
2018-11-04T12:12:59.344Z,102012.84
2018-11-04T12:15:27.736Z,102014.62
2018-11-04T12:17:56.189Z,102005.56
2018-11-04T12:20:24.541Z,101999.65
2018-11-04T12:22:52.943Z,101998.41
2018-11-04T12:25:21.323Z,101991.53
2018-11-04T12:27:49.720Z,101974.28
2018-11-04T12:30:18.095Z,101973.49
2018-11-04T12:32:46.635Z,101967.06
2018-11-04T12:35:15.118Z,101966.70
2018-11-04T12:37:43.588Z,101961.89
2018-11-04T12:40:12.946Z,101966.81
2018-11-04T12:42:41.343Z,101965.58
2018-11-04T12:45:11.154Z,101969.11
2018-11-04T12:47:39.541Z,101967.39
2018-11-04T12:50:09.103Z,101967.81
2018-11-04T12:52:37.535Z,101964.73
2018-11-04T12:55:06.326Z,101962.19
2018-11-04T12:57:35.094Z,101963.55
2018-11-04T13:00:03.884Z,101954.82
2018-11-04T13:02:32.287Z,101956.57
2018-11-04T13:05:00.663Z,101960.04
2018-11-04T13:07:29.103Z,101952.25
2018-11-04T13:09:57.588Z,101948.41
2018-11-04T13:12:26.414Z,101947.20
2018-11-04T13:14:54.791Z,101944.20
2018-11-04T13:17:23.182Z,101938.59
2018-11-04T13:19:51.555Z,101936.44
2018-11-04T13:22:19.963Z,101928.70
2018-11-04T13:24:48.338Z,101937.00
2018-11-04T13:27:16.734Z,101933.56
2018-11-04T13:29:45.111Z,101928.84
2018-11-04T13:32:13.513Z,101930.51
2018-11-04T13:34:41.874Z,101921.33
2018-11-04T13:37:10.278Z,101922.63
2018-11-04T13:39:38.692Z,101922.57
2018-11-04T13:42:07.085Z,101920.05
2018-11-04T13:44:35.540Z,101925.73
2018-11-04T13:47:03.928Z,101920.93
2018-11-04T13:49:32.436Z,101916.64
2018-11-04T13:52:00.734Z,101912.83
2018-11-04T13:54:29.278Z,101921.95
2018-11-04T13:56:57.646Z,101913.76
2018-11-04T13:59:26.043Z,101912.55
2018-11-04T14:01:54.421Z,101905.17
2018-11-04T14:04:22.819Z,101913.78
2018-11-04T14:06:51.198Z,101905.96
2018-11-04T14:09:19.589Z,101908.56
2018-11-04T14:11:47.976Z,101905.53
2018-11-04T14:14:16.385Z,101895.16
2018-11-04T14:16:44.770Z,101892.55
2018-11-04T14:19:13.639Z,101889.97
2018-11-04T14:21:42.006Z,101882.17
2018-11-04T14:24:10.423Z,101868.67
2018-11-04T14:26:38.831Z,101864.77
2018-11-04T14:29:07.230Z,101866.50
2018-11-04T14:31:35.619Z,101868.22
2018-11-04T14:34:04.070Z,101865.17
2018-11-04T14:36:32.440Z,101858.62
2018-11-04T14:39:00.856Z,101861.16
2018-11-04T14:41:29.260Z,101859.41
2018-11-04T14:43:57.663Z,101859.33
2018-11-04T14:46:26.047Z,101861.80
2018-11-04T14:48:54.446Z,101866.14
2018-11-04T14:51:22.846Z,101863.09
2018-11-04T14:53:51.266Z,101870.02
2018-11-04T14:56:21.831Z,101863.03
2018-11-04T14:58:50.231Z,101858.69
2018-11-04T15:01:18.643Z,101863.01
2018-11-04T15:03:47.060Z,101861.70
2018-11-04T15:06:15.443Z,101855.66
2018-11-04T15:08:43.865Z,101861.28
2018-11-04T15:11:12.292Z,101859.14
2018-11-04T15:13:40.711Z,101856.09
2018-11-04T15:16:09.083Z,101856.97
2018-11-04T15:18:37.567Z,101855.66
2018-11-04T15:21:05.883Z,101856.52
2018-11-04T15:23:34.287Z,101853.01
2018-11-04T15:26:02.667Z,101856.91
2018-11-04T15:28:31.067Z,101859.11
2018-11-04T15:30:59.462Z,101856.52
2018-11-04T15:33:27.852Z,101866.91
2018-11-04T15:35:56.251Z,101863.01
2018-11-04T15:38:24.677Z,101867.27
2018-11-04T15:40:53.087Z,101865.97
2018-11-04T15:43:21.462Z,101859.84
2018-11-04T15:45:50.056Z,101861.52
2018-11-04T15:48:18.435Z,101854.51
2018-11-04T15:50:46.831Z,101852.76
2018-11-04T15:53:15.211Z,101855.66
2018-11-04T15:55:43.621Z,101846.58
2018-11-04T15:58:11.998Z,101852.25
2018-11-04T16:00:40.396Z,101843.53
2018-11-04T16:03:08.787Z,101843.08
2018-11-04T16:05:37.205Z,101843.89
2018-11-04T16:08:06.402Z,101844.31
2018-11-04T16:10:34.811Z,101837.83
2018-11-04T16:13:03.195Z,101838.27
2018-11-04T16:15:31.594Z,101835.28
2018-11-04T16:17:59.985Z,101837.40
2018-11-04T16:20:28.396Z,101834.38
2018-11-04T16:22:56.775Z,101827.44
2018-11-04T16:25:25.222Z,101830.91
2018-11-04T16:27:53.582Z,101829.16
2018-11-04T16:30:21.987Z,101829.58
2018-11-04T16:32:50.371Z,101833.87
2018-11-04T16:35:18.830Z,101832.12
2018-11-04T16:37:47.349Z,101824.75
2018-11-04T16:40:15.647Z,101833.00
2018-11-04T16:42:44.015Z,101833.84
2018-11-04T16:45:14.336Z,101832.55
2018-11-04T16:47:42.716Z,101832.94
2018-11-04T16:50:12.226Z,101822.95
2018-11-04T16:52:40.894Z,101819.05
2018-11-04T16:55:10.314Z,101810.78
2018-11-04T16:57:38.698Z,101813.80
2018-11-04T17:00:08.131Z,101808.55
2018-11-04T17:02:36.966Z,101811.14
2018-11-04T17:05:05.626Z,101811.62
2018-11-04T17:07:34.015Z,101812.44
2018-11-04T17:10:02.424Z,101808.97
2018-11-04T17:12:30.800Z,101808.09
2018-11-04T17:14:59.198Z,101805.92
2018-11-04T17:17:27.577Z,101808.09
2018-11-04T17:19:56.019Z,101804.66
2018-11-04T17:22:24.431Z,101805.95
2018-11-04T17:24:52.834Z,101801.66
2018-11-04T17:27:21.239Z,101802.11
2018-11-04T17:29:49.623Z,101796.92
2018-11-04T17:32:18.027Z,101786.95
2018-11-04T17:34:46.406Z,101783.94
2018-11-04T17:37:14.806Z,101784.81
2018-11-04T17:39:43.177Z,101786.59
2018-11-04T17:42:11.607Z,101780.91
2018-11-04T17:44:40.068Z,101776.14
2018-11-04T17:47:08.415Z,101771.40
2018-11-04T17:49:36.803Z,101774.00
2018-11-04T17:52:05.222Z,101777.89
2018-11-04T17:54:33.638Z,101775.30
2018-11-04T17:57:02.047Z,101768.80
2018-11-04T17:59:30.432Z,101771.40
2018-11-04T18:01:58.835Z,101773.13
2018-11-04T18:04:27.226Z,101764.45
2018-11-04T18:06:55.633Z,101773.55
2018-11-04T18:09:24.008Z,101773.97
2018-11-04T18:11:52.406Z,101773.97
2018-11-04T18:14:20.796Z,101766.61
2018-11-04T18:16:49.207Z,101769.20
2018-11-04T18:19:17.601Z,101767.91
2018-11-04T18:21:46.117Z,101769.20
2018-11-04T18:24:14.495Z,101770.52
2018-11-04T18:26:42.950Z,101771.40
2018-11-04T18:29:11.299Z,101775.30
2018-11-04T18:31:39.727Z,101771.00
2018-11-04T18:34:08.124Z,101767.84
2018-11-04T18:36:36.517Z,101777.52
2018-11-04T18:39:06.770Z,101767.98
2018-11-04T18:41:35.343Z,101773.17
2018-11-04T18:44:03.779Z,101781.42
2018-11-04T18:46:32.196Z,101779.70
2018-11-04T18:49:00.588Z,101771.52
2018-11-04T18:51:29.324Z,101776.59
2018-11-04T18:53:57.702Z,101774.39
2018-11-04T18:56:26.110Z,101771.80
2018-11-04T18:58:54.515Z,101772.61
2018-11-04T19:01:23.208Z,101774.34
2018-11-04T19:03:51.591Z,101767.84
2018-11-04T19:06:20.091Z,101765.19
2018-11-04T19:08:48.576Z,101764.32
2018-11-04T19:11:17.010Z,101767.34
2018-11-04T19:13:45.418Z,101768.64
2018-11-04T19:16:13.802Z,101765.59
2018-11-04T19:18:42.486Z,101759.97
2018-11-04T19:21:10.838Z,101759.92
2018-11-04T19:23:39.246Z,101755.15
2018-11-04T19:26:07.658Z,101754.72
2018-11-04T19:28:36.104Z,101749.53
2018-11-04T19:31:04.524Z,101755.09
2018-11-04T19:33:32.916Z,101757.69
2018-11-04T19:36:01.303Z,101760.70
2018-11-04T19:38:29.736Z,101758.98
2018-11-04T19:40:58.178Z,101760.28
2018-11-04T19:43:26.593Z,101755.94
2018-11-04T19:45:54.983Z,101754.22
2018-11-04T19:48:23.396Z,101745.13
2018-11-04T19:50:51.817Z,101745.55
2018-11-04T19:53:20.248Z,101746.41
2018-11-04T19:55:48.633Z,101743.81
2018-11-04T19:58:17.048Z,101750.75
2018-11-04T20:00:45.431Z,101748.60
2018-11-04T20:03:13.839Z,101746.00
2018-11-04T20:05:42.227Z,101749.53
2018-11-04T20:08:10.639Z,101749.11
2018-11-04T20:10:39.076Z,101747.80
2018-11-04T20:13:12.790Z,101752.19
2018-11-04T20:15:41.167Z,101743.52
2018-11-04T20:18:15.032Z,101738.78
2018-11-04T20:20:43.561Z,101739.65
2018-11-04T20:23:12.141Z,101743.97
2018-11-04T20:25:45.895Z,101736.17
2018-11-04T20:28:14.743Z,101730.98
2018-11-04T20:30:43.728Z,101735.30
2018-11-04T20:33:13.761Z,101749.11
2018-11-04T20:35:42.146Z,101740.44
2018-11-04T20:38:10.560Z,101744.34
2018-11-04T20:40:44.282Z,101736.55
2018-11-04T20:43:12.678Z,101732.23
2018-11-04T20:45:41.057Z,101733.95
2018-11-04T20:48:14.795Z,101726.59
2018-11-04T20:50:48.422Z,101727.44
2018-11-04T20:53:16.823Z,101725.63
2018-11-04T20:55:50.500Z,101728.17
2018-11-04T20:58:19.113Z,101722.92
2018-11-04T21:00:47.413Z,101724.64
2018-11-04T21:03:15.814Z,101725.92
2018-11-04T21:05:44.194Z,101722.41
2018-11-04T21:08:12.595Z,101722.41
2018-11-04T21:10:40.976Z,101727.16
2018-11-04T21:13:09.436Z,101735.37
2018-11-04T21:15:37.836Z,101726.73
2018-11-04T21:18:06.332Z,101727.61
2018-11-04T21:20:34.734Z,101720.30
2018-11-04T21:23:03.111Z,101725.52
2018-11-04T21:25:31.569Z,101719.45
2018-11-04T21:27:59.970Z,101719.88
2018-11-04T21:30:28.355Z,101722.53
2018-11-04T21:32:56.744Z,101717.34
2018-11-04T21:35:25.143Z,101724.27
2018-11-04T21:37:53.619Z,101721.25
2018-11-04T21:40:21.994Z,101718.72
2018-11-04T21:42:50.530Z,101713.04
2018-11-04T21:45:18.787Z,101710.05
2018-11-04T21:47:47.166Z,101709.65
2018-11-04T21:50:15.558Z,101714.03
2018-11-04T21:52:43.944Z,101711.87
2018-11-04T21:55:13.348Z,101710.16
2018-11-04T21:57:42.783Z,101698.95
2018-11-04T22:00:13.031Z,101696.38
2018-11-04T22:02:41.605Z,101687.27
2018-11-04T22:05:10.610Z,101688.56
2018-11-04T22:07:39.397Z,101691.16
2018-11-04T22:10:10.030Z,101694.58
2018-11-04T22:12:38.599Z,101695.48
2018-11-04T22:15:07.091Z,101697.59
2018-11-04T22:17:35.655Z,101698.08
2018-11-04T22:20:04.328Z,101687.27
2018-11-04T22:22:32.716Z,101682.07
2018-11-04T22:25:01.119Z,101681.70
2018-11-04T22:27:29.495Z,101677.33
2018-11-04T22:29:57.886Z,101674.73
2018-11-04T22:32:26.262Z,101667.36
2018-11-04T22:34:54.662Z,101664.34
2018-11-04T22:37:23.051Z,101666.52
2018-11-04T22:39:51.462Z,101668.29
2018-11-04T22:42:19.974Z,101669.59
2018-11-04T22:44:48.295Z,101670.41
2018-11-04T22:47:16.687Z,101668.23
2018-11-04T22:49:45.096Z,101666.06
2018-11-04T22:52:13.475Z,101657.83
2018-11-04T22:54:41.886Z,101653.03
2018-11-04T22:57:10.262Z,101651.28
2018-11-04T22:59:38.655Z,101639.59
2018-11-04T23:02:07.037Z,101633.55
2018-11-04T23:04:40.895Z,101639.65
2018-11-04T23:07:09.280Z,101636.14
2018-11-04T23:09:37.703Z,101643.55
2018-11-04T23:12:06.176Z,101640.47
2018-11-04T23:14:34.551Z,101630.51
2018-11-04T23:17:02.947Z,101625.77
2018-11-04T23:19:31.324Z,101620.99
2018-11-04T23:21:59.733Z,101624.44
2018-11-04T23:24:28.125Z,101625.77
2018-11-04T23:26:56.535Z,101616.28
2018-11-04T23:29:24.923Z,101609.81
2018-11-04T23:31:53.326Z,101615.00
2018-11-04T23:34:21.710Z,101613.75
2018-11-04T23:36:50.127Z,101625.44
2018-11-04T23:39:18.506Z,101623.30
2018-11-04T23:41:46.931Z,101605.48
2018-11-04T23:44:15.311Z,101611.66
2018-11-04T23:46:43.707Z,101605.19
2018-11-04T23:49:12.711Z,101604.39
2018-11-04T23:51:41.102Z,101598.38
2018-11-04T23:54:09.514Z,101599.25
2018-11-04T23:56:37.911Z,101591.50
2018-11-04T23:59:06.291Z,101602.82
